Time;durP1;ratioP1;P1;durP2;ratioP2;P2;SDS_P1;SDS_P2;PMS_P1;PMS_P2;Temp;Humidity;BMP_temperature;BMP_pressure;BME280_temperature;BME280_humidity;BME280_pressure;Samples;Min_cycle;Max_cycle;Signal;HPM_P1;HPM_P2
2021/03/21 00:01:50;;;;;;;23.20;14.98;;;5.70;99.90;;;;;;5110377;28;20488;-63
2021/03/21 00:04:16;;;;;;;24.63;15.20;;;5.70;99.90;;;;;;5110601;28;20028;-63
2021/03/21 00:06:43;;;;;;;26.23;15.07;;;5.70;99.90;;;;;;5110798;28;20047;-63
2021/03/21 00:09:10;;;;;;;25.83;15.48;;;5.60;99.90;;;;;;5110531;28;20024;-63
2021/03/21 00:11:36;;;;;;;23.15;15.02;;;5.60;99.90;;;;;;5110473;28;20034;-63
2021/03/21 00:14:03;;;;;;;21.45;14.68;;;5.60;99.90;;;;;;5099103;28;20100;-63
2021/03/21 00:16:29;;;;;;;21.35;13.95;;;5.70;99.90;;;;;;5097080;28;20028;-63
2021/03/21 00:18:55;;;;;;;23.25;15.52;;;5.60;99.90;;;;;;5096981;28;20416;-63
2021/03/21 00:21:20;;;;;;;24.70;14.48;;;5.70;99.90;;;;;;5096311;28;20024;-63
2021/03/21 00:23:46;;;;;;;23.92;15.40;;;5.70;99.90;;;;;;5096870;28;20028;-63
2021/03/21 00:26:13;;;;;;;25.55;15.48;;;5.60;99.90;;;;;;5096276;28;20024;-63
2021/03/21 00:28:40;;;;;;;25.02;15.55;;;5.60;99.90;;;;;;5096339;28;20016;-63
2021/03/21 00:31:08;;;;;;;24.58;14.65;;;5.60;99.90;;;;;;5096810;28;20054;-63
2021/03/21 00:33:35;;;;;;;24.63;14.60;;;5.60;99.90;;;;;;5096792;28;20031;-62
2021/03/21 00:36:02;;;;;;;22.63;14.20;;;5.60;99.90;;;;;;5096175;28;20020;-63
2021/03/21 00:38:32;;;;;;;22.55;14.52;;;5.60;99.90;;;;;;5096415;28;20373;-64
2021/03/21 00:40:58;;;;;;;22.80;14.40;;;5.60;99.90;;;;;;5095432;28;20024;-63
2021/03/21 00:43:24;;;;;;;21.00;13.15;;;5.60;99.90;;;;;;5095414;28;20017;-63
2021/03/21 00:45:50;;;;;;;20.38;12.90;;;5.70;99.90;;;;;;5095979;28;20145;-63
2021/03/21 00:48:19;;;;;;;22.25;14.25;;;5.60;99.90;;;;;;5096463;28;20019;-64
2021/03/21 00:50:46;;;;;;;20.92;13.95;;;5.60;99.90;;;;;;5096422;28;20024;-62
2021/03/21 00:53:12;;;;;;;21.38;13.80;;;5.60;99.90;;;;;;5094649;28;20370;-63
2021/03/21 00:55:38;;;;;;;19.88;13.23;;;5.60;99.90;;;;;;5096069;28;20050;-63
2021/03/21 00:58:04;;;;;;;21.65;12.82;;;5.60;99.90;;;;;;5096272;28;20461;-63
2021/03/21 01:00:42;;;;;;;20.15;13.38;;;5.60;99.90;;;;;;5094785;28;20529;-63
2021/03/21 01:03:09;;;;;;;22.10;13.27;;;5.60;99.90;;;;;;5094750;28;20534;-63
2021/03/21 01:05:38;;;;;;;19.98;13.07;;;5.50;99.90;;;;;;5095570;28;20023;-63
2021/03/21 01:08:06;;;;;;;23.42;13.82;;;5.60;99.90;;;;;;5094636;28;20055;-63
2021/03/21 01:10:35;;;;;;;23.50;14.68;;;5.60;99.90;;;;;;5096016;28;20012;-63
2021/03/21 01:13:02;;;;;;;22.38;13.55;;;5.50;99.90;;;;;;5095405;28;20024;-63
2021/03/21 01:15:30;;;;;;;24.25;13.45;;;5.50;99.90;;;;;;5094474;28;20016;-63
2021/03/21 01:17:56;;;;;;;25.27;14.32;;;5.50;99.90;;;;;;5095853;28;20028;-63
2021/03/21 01:20:24;;;;;;;22.33;13.80;;;5.40;99.90;;;;;;5095812;28;20116;-63
2021/03/21 01:22:50;;;;;;;23.00;13.73;;;5.50;99.90;;;;;;5095663;28;20458;-64
2021/03/21 01:25:20;;;;;;;24.73;15.07;;;5.50;99.90;;;;;;5092896;28;20035;-63
2021/03/21 01:27:46;;;;;;;27.65;15.75;;;5.40;99.90;;;;;;5095710;28;20365;-63
2021/03/21 01:30:13;;;;;;;25.77;15.88;;;5.40;99.90;;;;;;5095637;28;20017;-63
2021/03/21 01:32:39;;;;;;;25.98;14.65;;;5.40;99.90;;;;;;5095597;28;20031;-63
2021/03/21 01:35:07;;;;;;;26.13;15.45;;;5.40;99.90;;;;;;5095564;28;20028;-63
2021/03/21 01:37:32;;;;;;;24.90;15.30;;;5.40;99.90;;;;;;5095516;28;20116;-63
2021/03/21 01:39:58;;;;;;;21.90;14.00;;;5.50;99.90;;;;;;5093682;28;20028;-63
2021/03/21 01:42:24;;;;;;;25.15;14.45;;;5.40;99.90;;;;;;5093856;28;20055;-63
2021/03/21 01:44:53;;;;;;;24.67;14.23;;;5.50;99.90;;;;;;5094191;28;20081;-63
2021/03/21 01:47:33;;;;;;;26.48;15.85;;;5.40;99.90;;;;;;5095340;28;20514;-63
2021/03/21 01:50:04;;;;;;;23.58;14.25;;;5.40;99.90;;;;;;5095313;28;20073;-63
2021/03/21 01:52:35;;;;;;;27.33;15.55;;;5.40;99.90;;;;;;5094671;28;20028;-63
2021/03/21 01:55:04;;;;;;;23.25;14.85;;;5.40;99.90;;;;;;5094904;28;20507;-63
2021/03/21 01:57:30;;;;;;;31.00;16.92;;;5.50;99.90;;;;;;5094856;28;20570;-63
2021/03/21 01:59:56;;;;;;;24.35;14.70;;;5.50;99.90;;;;;;5095122;28;20028;-63
2021/03/21 02:02:22;;;;;;;27.10;16.25;;;5.50;99.90;;;;;;5094443;28;20080;-63
2021/03/21 02:04:48;;;;;;;26.77;16.35;;;5.50;99.90;;;;;;5094975;28;20058;-63
2021/03/21 02:07:38;;;;;;;25.63;16.00;;;5.50;99.90;;;;;;5093507;28;20031;-63
2021/03/21 02:10:29;;;;;;;26.23;15.88;;;5.50;99.90;;;;;;5094394;28;20023;-63
2021/03/21 02:13:11;;;;;;;27.30;16.27;;;5.50;99.90;;;;;;5094520;28;20032;-63
2021/03/21 02:15:43;;;;;;;24.55;14.93;;;5.50;99.90;;;;;;5094827;28;20060;-63
2021/03/21 02:18:47;;;;;;;26.42;15.93;;;5.50;99.90;;;;;;5092965;28;20032;-63
2021/03/21 02:21:17;;;;;;;;;;;5.40;99.90;;;;;;5093494;28;20031;-63
2021/03/21 02:24:22;;;;;;;26.40;14.90;;;5.50;99.90;;;;;;5092878;28;19904;-63
2021/03/21 02:29:53;;;;;;;23.48;13.90;;;5.40;99.90;;;;;;5112314;27;20351;-63
2021/03/21 02:32:43;;;;;;;23.25;13.48;;;5.50;99.90;;;;;;5111713;28;20104;-63
2021/03/21 02:35:49;;;;;;;24.02;14.05;;;5.50;99.90;;;;;;5111321;28;20102;-63
2021/03/21 02:38:28;;;;;;;24.88;13.80;;;5.50;99.90;;;;;;5111327;28;20477;-63
2021/03/21 02:41:04;;;;;;;22.35;13.18;;;5.50;99.90;;;;;;5111832;28;20028;-63
2021/03/21 02:43:52;;;;;;;21.35;12.90;;;5.50;99.90;;;;;;5109666;28;20106;-63
2021/03/21 02:46:25;;;;;;;21.10;13.02;;;5.50;99.90;;;;;;5111239;28;20024;-63
2021/03/21 02:48:56;;;;;;;23.40;14.18;;;5.50;99.90;;;;;;5111666;28;20024;-64
2021/03/21 02:51:28;;;;;;;22.38;13.38;;;5.50;99.90;;;;;;5111084;28;20054;-63
2021/03/21 02:54:01;;;;;;;25.48;13.73;;;5.50;99.90;;;;;;5111306;28;20111;-63
2021/03/21 02:56:29;;;;;;;19.75;12.52;;;5.50;99.90;;;;;;5111548;28;20019;-63
2021/03/21 02:59:06;;;;;;;27.02;14.20;;;5.50;99.90;;;;;;5111220;28;20035;-63
2021/03/21 03:01:39;;;;;;;23.88;14.02;;;5.50;99.90;;;;;;5110330;28;20461;-63
2021/03/21 03:04:08;;;;;;;;;;;5.50;99.90;;;;;;5111574;28;20024;-63
2021/03/21 03:06:37;;;;;;;20.67;13.00;;;5.50;99.90;;;;;;5111047;28;19911;-63
2021/03/21 03:09:09;;;;;;;25.48;14.05;;;5.50;99.90;;;;;;5109490;28;20023;-63
2021/03/21 03:11:46;;;;;;;23.42;13.77;;;5.60;99.90;;;;;;5111256;28;20024;-63
2021/03/21 03:14:16;;;;;;;24.23;14.23;;;5.50;99.90;;;;;;5111218;28;20020;-63
2021/03/21 03:16:58;;;;;;;28.85;16.52;;;5.50;99.90;;;;;;5109642;28;20028;-63
2021/03/21 03:19:51;;;;;;;26.73;15.43;;;5.50;99.90;;;;;;5110839;28;20035;-63
2021/03/21 03:22:28;;;;;;;28.42;16.88;;;5.50;99.90;;;;;;5110981;28;20020;-63
2021/03/21 03:25:22;;;;;;;28.67;14.95;;;5.40;99.90;;;;;;5111011;28;20085;-63
2021/03/21 03:28:05;;;;;;;29.90;16.77;;;5.40;99.90;;;;;;5110058;28;20047;-64
2021/03/21 03:30:37;;;;;;;24.95;13.00;;;5.50;99.90;;;;;;5110938;28;20065;-63
2021/03/21 03:33:05;;;;;;;27.52;15.85;;;5.50;99.90;;;;;;5110335;28;20099;-63
2021/03/21 03:35:32;;;;;;;31.05;16.05;;;5.50;99.90;;;;;;5110791;28;20027;-63
2021/03/21 03:37:58;;;;;;;32.53;18.35;;;5.50;99.90;;;;;;5109307;28;20020;-63
2021/03/21 03:40:24;;;;;;;32.35;17.02;;;5.50;99.90;;;;;;5099862;28;20024;-63
2021/03/21 03:43:18;;;;;;;33.22;17.95;;;5.50;99.90;;;;;;5097068;28;20028;-63
2021/03/21 03:48:54;;;;;;;34.03;17.90;;;5.50;99.90;;;;;;5112289;27;20351;-63
2021/03/21 03:51:35;;;;;;;32.42;17.80;;;5.40;99.90;;;;;;5111498;28;20051;-63
2021/03/21 03:54:11;;;;;;;32.08;17.05;;;5.50;99.90;;;;;;5111678;28;20048;-63
2021/03/21 03:56:47;;;;;;;32.20;17.35;;;5.50;99.90;;;;;;5111593;28;20027;-63
2021/03/21 03:59:53;;;;;;;32.78;18.10;;;5.50;99.90;;;;;;5111814;28;20031;-63
2021/03/21 04:02:24;;;;;;;32.92;17.55;;;5.50;99.90;;;;;;5110920;28;20027;-63
2021/03/21 04:04:59;;;;;;;29.85;16.80;;;5.50;99.90;;;;;;5111722;28;20024;-63
2021/03/21 04:07:58;;;;;;;29.90;15.57;;;5.50;99.90;;;;;;5109778;28;20426;-63
2021/03/21 04:10:48;;;;;;;29.63;15.23;;;5.50;99.90;;;;;;5109705;28;20020;-63
2021/03/21 04:13:20;;;;;;;28.20;15.60;;;5.50;99.90;;;;;;5111638;28;20031;-63
2021/03/21 04:15:49;;;;;;;29.13;16.42;;;5.50;99.90;;;;;;5111032;28;20024;-63
2021/03/21 04:18:37;;;;;;;28.38;15.82;;;5.60;99.90;;;;;;5111546;28;20047;-63
2021/03/21 04:21:19;;;;;;;28.15;15.77;;;5.60;99.90;;;;;;5110931;28;20020;-63
2021/03/21 04:24:01;;;;;;;25.33;15.02;;;5.60;99.90;;;;;;5111441;28;20020;-63
2021/03/21 04:26:42;;;;;;;30.85;17.55;;;5.60;99.90;;;;;;5111287;28;20058;-63
2021/03/21 04:29:18;;;;;;;29.52;15.27;;;5.50;99.90;;;;;;5111235;28;20059;-63
2021/03/21 04:31:46;;;;;;;30.65;15.85;;;5.60;99.90;;;;;;5111351;28;20024;-64
2021/03/21 04:34:14;;;;;;;25.40;15.82;;;5.60;99.90;;;;;;5112240;28;20020;-64
2021/03/21 04:36:44;;;;;;;29.42;16.38;;;5.60;99.90;;;;;;5111384;28;20118;-63
2021/03/21 04:39:13;;;;;;;29.45;16.83;;;5.60;99.90;;;;;;5112394;28;20024;-63
2021/03/21 04:41:43;;;;;;;29.02;16.88;;;5.60;99.90;;;;;;5116579;28;20020;-63
2021/03/21 04:44:37;;;;;;;34.40;17.80;;;5.60;99.90;;;;;;5116720;28;20027;-63
2021/03/21 04:47:10;;;;;;;28.02;16.15;;;5.60;99.90;;;;;;5115105;28;20048;-63
2021/03/21 04:49:36;;;;;;;35.85;18.33;;;5.60;99.90;;;;;;5111454;28;20063;-63
2021/03/21 04:52:36;;;;;;;34.80;18.42;;;5.60;99.90;;;;;;5110581;28;20036;-63
2021/03/21 04:55:05;;;;;;;31.75;17.67;;;5.60;99.90;;;;;;5110175;28;20080;-63
2021/03/21 04:57:41;;;;;;;30.88;16.70;;;5.60;99.90;;;;;;5110803;28;20028;-63
2021/03/21 05:00:13;;;;;;;34.17;18.40;;;5.60;99.90;;;;;;5096228;28;20024;-63
2021/03/21 05:02:43;;;;;;;33.53;18.73;;;5.60;99.90;;;;;;5097124;28;20027;-63
2021/03/21 05:05:23;;;;;;;30.70;17.77;;;5.60;99.90;;;;;;5097060;28;20019;-63
2021/03/21 05:07:55;;;;;;;27.05;14.38;;;5.60;99.90;;;;;;5096913;28;20424;-63
2021/03/21 05:10:43;;;;;;;31.63;18.35;;;5.60;99.90;;;;;;5096363;28;20024;-63
2021/03/21 05:13:32;;;;;;;34.85;18.88;;;5.60;99.90;;;;;;5095385;28;20349;-63
2021/03/21 05:16:09;;;;;;;29.75;18.02;;;5.60;99.90;;;;;;5095067;28;20020;-63
2021/03/21 05:18:51;;;;;;;29.02;17.80;;;5.60;99.90;;;;;;5095652;28;20480;-63
2021/03/21 05:21:23;;;;;;;31.63;18.45;;;5.70;99.90;;;;;;5096414;28;20031;-64
2021/03/21 05:23:58;;;;;;;34.10;18.70;;;5.60;99.90;;;;;;5095150;28;20108;-63
2021/03/21 05:26:30;;;;;;;33.35;17.98;;;5.60;99.90;;;;;;5096523;28;20369;-64
2021/03/21 05:29:07;;;;;;;32.80;17.73;;;5.60;99.90;;;;;;5096538;28;20080;-63
2021/03/21 05:31:33;;;;;;;33.30;16.83;;;5.60;99.90;;;;;;5095085;28;20023;-63
2021/03/21 05:34:01;;;;;;;27.95;16.15;;;5.70;99.90;;;;;;5096496;28;20020;-63
2021/03/21 05:36:54;;;;;;;26.10;15.13;;;5.70;99.90;;;;;;5096427;28;20020;-63
2021/03/21 05:39:38;;;;;;;26.30;15.20;;;5.70;99.90;;;;;;5095709;28;20024;-63
2021/03/21 05:42:42;;;;;;;23.27;14.75;;;5.70;99.90;;;;;;5096010;28;20020;-63
2021/03/21 05:45:33;;;;;;;24.40;13.88;;;5.70;99.90;;;;;;5095591;28;20032;-63
2021/03/21 05:48:20;;;;;;;23.52;13.85;;;5.70;99.90;;;;;;5095459;28;20044;-63
2021/03/21 05:51:25;;;;;;;22.88;13.73;;;5.70;99.90;;;;;;5096124;28;20021;-63
2021/03/21 05:54:30;;;;;;;21.90;13.40;;;5.80;99.90;;;;;;5095923;28;20020;-63
2021/03/21 05:57:27;;;;;;;21.38;12.77;;;5.80;99.90;;;;;;5095327;28;20051;-63
2021/03/21 06:00:34;;;;;;;22.05;13.60;;;5.80;99.90;;;;;;5095415;28;20031;-63
2021/03/21 06:03:28;;;;;;;18.30;11.70;;;5.90;99.90;;;;;;5095410;28;20020;-63
2021/03/21 06:06:24;;;;;;;18.10;11.55;;;5.90;99.90;;;;;;5095747;28;20065;-63
2021/03/21 06:09:16;;;;;;;16.50;11.45;;;5.90;99.90;;;;;;5095541;28;20035;-63
2021/03/21 06:12:21;;;;;;;17.75;11.18;;;6.00;99.90;;;;;;5094551;28;20038;-64
2021/03/21 06:15:04;;;;;;;16.75;11.60;;;6.00;99.90;;;;;;5095055;28;20492;-63
2021/03/21 06:17:55;;;;;;;17.52;10.70;;;6.00;99.90;;;;;;5093843;28;20020;-63
2021/03/21 06:21:00;;;;;;;14.75;10.02;;;6.00;99.90;;;;;;5094048;28;20035;-64
2021/03/21 06:23:53;;;;;;;14.57;9.90;;;6.10;99.90;;;;;;5094771;28;20039;-63
2021/03/21 06:26:43;;;;;;;14.20;9.82;;;6.00;99.90;;;;;;5093465;28;20473;-63
2021/03/21 06:29:38;;;;;;;13.35;9.02;;;6.10;99.90;;;;;;5094800;28;20028;-63
2021/03/21 06:32:39;;;;;;;15.65;9.27;;;6.20;99.90;;;;;;5094845;28;20424;-64
2021/03/21 06:35:44;;;;;;;15.68;8.82;;;6.20;99.90;;;;;;5094815;28;20409;-64
2021/03/21 06:38:50;;;;;;;14.18;9.48;;;6.30;99.90;;;;;;5094553;28;20081;-63
2021/03/21 06:41:55;;;;;;;15.00;8.75;;;6.30;99.90;;;;;;5094577;28;20026;-63
2021/03/21 06:44:49;;;;;;;16.27;9.23;;;6.30;99.90;;;;;;5095042;28;20475;-63
2021/03/21 06:47:47;;;;;;;17.52;8.35;;;6.30;99.90;;;;;;5094368;28;20071;-64
2021/03/21 06:50:45;;;;;;;19.38;9.90;;;6.20;99.90;;;;;;5093162;28;20026;-63
2021/03/21 06:53:37;;;;;;;16.50;8.85;;;6.30;99.90;;;;;;5093433;28;20024;-63
2021/03/21 06:56:38;;;;;;;15.15;8.40;;;6.20;99.90;;;;;;5094885;28;20051;-63
2021/03/21 07:02:35;;;;;;;15.10;8.77;;;6.20;99.90;;;;;;5112310;27;20354;-64
2021/03/21 07:05:41;;;;;;;18.33;8.77;;;6.30;99.90;;;;;;5110650;28;20020;-63
2021/03/21 07:08:46;;;;;;;14.98;8.82;;;6.30;99.90;;;;;;5111352;28;20016;-63
2021/03/21 07:11:51;;;;;;;16.13;8.20;;;6.40;99.90;;;;;;5111141;28;20024;-63
2021/03/21 07:14:55;;;;;;;14.52;7.90;;;6.40;99.90;;;;;;5111142;28;20077;-63
2021/03/21 07:17:55;;;;;;;16.65;8.65;;;6.40;99.90;;;;;;5111397;28;20103;-64
2021/03/21 07:20:55;;;;;;;13.63;8.43;;;6.40;99.90;;;;;;5111098;28;20035;-64
2021/03/21 07:24:00;;;;;;;14.85;7.60;;;6.40;99.90;;;;;;5111621;28;20103;-63
2021/03/21 07:29:53;;;;;;;14.68;7.85;;;6.40;99.90;;;;;;5111516;27;20347;-63
2021/03/21 07:35:54;;;;;;;18.70;9.15;;;6.50;99.90;;;;;;5112324;27;20400;-63
2021/03/21 07:38:33;;;;;;;13.60;7.65;;;6.60;99.90;;;;;;5111322;28;20048;-63
2021/03/21 07:41:26;;;;;;;18.35;8.75;;;6.50;99.90;;;;;;5111615;28;20020;-64
2021/03/21 07:44:17;;;;;;;11.30;7.03;;;6.50;99.90;;;;;;5111231;28;20024;-64
2021/03/21 07:47:05;;;;;;;12.93;6.80;;;6.60;99.90;;;;;;5111371;28;20024;-64
2021/03/21 07:49:56;;;;;;;11.70;6.32;;;6.70;99.90;;;;;;5111082;28;20077;-64
2021/03/21 07:52:53;;;;;;;12.57;5.88;;;6.70;99.90;;;;;;5111469;28;20457;-64
2021/03/21 07:55:29;;;;;;;9.20;5.15;;;6.80;99.90;;;;;;5110991;28;20031;-64
2021/03/21 08:00:33;;;;;;;8.05;4.22;;;6.80;99.90;;;;;;5112366;27;20742;-64
2021/03/21 08:03:18;;;;;;;8.20;3.58;;;6.70;99.90;;;;;;5111966;28;20027;-64
2021/03/21 08:05:44;;;;;;;5.15;3.00;;;6.50;99.90;;;;;;5111647;28;20016;-63
2021/03/21 08:08:15;;;;;;;7.68;3.30;;;6.50;99.90;;;;;;5111618;28;20110;-63
2021/03/21 08:10:41;;;;;;;6.25;2.88;;;6.50;99.90;;;;;;5110402;28;20047;-64
2021/03/21 08:13:47;;;;;;;11.65;3.53;;;6.50;99.90;;;;;;5110323;28;20070;-64
2021/03/21 08:16:33;;;;;;;8.00;2.92;;;6.50;99.90;;;;;;5111101;28;20058;-64
2021/03/21 08:18:59;;;;;;;7.25;2.95;;;6.40;99.90;;;;;;5111620;28;20086;-63
2021/03/21 08:21:30;;;;;;;15.35;3.47;;;6.50;99.90;;;;;;5111565;28;20028;-63
2021/03/21 08:24:04;;;;;;;11.90;3.58;;;6.50;99.90;;;;;;5111257;28;20016;-63
2021/03/21 08:26:31;;;;;;;8.13;3.00;;;6.60;99.90;;;;;;5111513;28;20488;-63
2021/03/21 08:29:05;;;;;;;10.75;2.67;;;6.70;99.90;;;;;;5111150;28;20490;-64
2021/03/21 08:31:40;;;;;;;13.25;2.88;;;6.80;99.90;;;;;;5111188;28;20019;-64
2021/03/21 08:34:38;;;;;;;18.35;3.63;;;6.80;99.90;;;;;;5111097;28;20054;-64
2021/03/21 08:37:33;;;;;;;16.10;3.13;;;6.90;99.90;;;;;;5110699;28;20499;-63
2021/03/21 08:40:11;;;;;;;14.20;3.03;;;6.90;99.90;;;;;;5110426;28;20468;-64
2021/03/21 08:42:41;;;;;;;16.33;3.78;;;6.90;99.90;;;;;;5109805;28;20463;-64
2021/03/21 08:45:34;;;;;;;19.52;3.67;;;7.00;99.90;;;;;;5111164;28;20030;-63
2021/03/21 08:48:05;;;;;;;18.08;3.13;;;7.00;99.90;;;;;;5111157;28;20012;-64
2021/03/21 08:50:36;;;;;;;20.52;3.47;;;7.00;99.90;;;;;;5111072;28;20016;-63
2021/03/21 08:53:02;;;;;;;20.52;3.78;;;7.00;99.90;;;;;;5110767;28;20016;-64
2021/03/21 08:55:32;;;;;;;21.63;3.67;;;7.10;99.90;;;;;;5109593;28;20024;-64
2021/03/21 08:58:00;;;;;;;14.55;3.30;;;7.10;99.90;;;;;;5110987;28;20016;-64
2021/03/21 09:00:32;;;;;;;21.58;4.40;;;7.20;99.90;;;;;;5110121;28;20067;-64
2021/03/21 09:02:57;;;;;;;20.63;3.20;;;7.20;99.90;;;;;;5110837;28;20069;-64
2021/03/21 09:05:24;;;;;;;25.88;3.67;;;7.20;99.90;;;;;;5110732;28;20020;-64
2021/03/21 09:10:31;;;;;;;19.77;3.92;;;7.20;99.90;;;;;;5110902;27;20728;-63
2021/03/21 09:16:05;;;;;;;19.98;3.38;;;7.00;99.90;;;;;;5112268;27;20396;-64
2021/03/21 09:18:38;;;;;;;17.85;4.00;;;7.10;99.90;;;;;;5111968;28;20019;-63
2021/03/21 09:21:25;;;;;;;13.43;3.10;;;7.10;99.90;;;;;;5111592;28;20020;-63
2021/03/21 09:24:09;;;;;;;16.63;3.47;;;7.10;99.90;;;;;;5111778;28;20027;-63
2021/03/21 09:26:40;;;;;;;19.75;3.65;;;7.10;99.90;;;;;;5111779;28;20024;-64
2021/03/21 09:29:31;;;;;;;19.60;4.07;;;7.00;99.90;;;;;;5111750;28;20019;-64
2021/03/21 09:32:01;;;;;;;24.23;5.30;;;7.10;99.90;;;;;;5111662;28;20020;-64
2021/03/21 09:34:51;;;;;;;22.60;4.30;;;7.10;99.90;;;;;;5111585;28;20028;-64
2021/03/21 09:37:21;;;;;;;29.33;6.78;;;7.20;99.90;;;;;;5111608;28;20022;-64
2021/03/21 09:40:01;;;;;;;26.75;5.57;;;7.00;99.90;;;;;;5110402;28;20023;-63
2021/03/21 09:42:27;;;;;;;29.58;5.70;;;7.10;99.90;;;;;;5109683;28;20020;-64
2021/03/21 09:44:53;;;;;;;32.50;5.80;;;7.00;99.90;;;;;;5111442;28;20023;-63
2021/03/21 09:47:26;;;;;;;46.70;6.25;;;7.00;99.90;;;;;;5109624;28;20020;-63
2021/03/21 09:50:07;;;;;;;31.55;5.80;;;6.90;99.90;;;;;;5110832;28;20035;-64
2021/03/21 09:53:12;;;;;;;34.95;6.85;;;7.10;99.90;;;;;;5111033;28;20030;-63
2021/03/21 09:55:49;;;;;;;31.73;6.00;;;7.00;99.90;;;;;;5110573;28;20031;-64
2021/03/21 09:58:41;;;;;;;42.72;6.22;;;6.90;99.90;;;;;;5111216;28;20110;-63
2021/03/21 10:01:38;;;;;;;34.33;5.97;;;7.10;99.90;;;;;;5110673;28;20055;-64
2021/03/21 10:04:33;;;;;;;39.95;5.90;;;7.50;99.90;;;;;;5111026;28;20016;-63
2021/03/21 10:07:06;;;;;;;30.30;5.32;;;7.60;99.90;;;;;;5110715;28;20016;-64
2021/03/21 10:09:34;;;;;;;40.75;7.47;;;7.70;99.90;;;;;;5110967;28;20077;-64
2021/03/21 10:12:06;;;;;;;31.67;6.15;;;7.60;99.90;;;;;;5110963;28;20023;-64
2021/03/21 10:19:56;;;;;;;37.15;6.00;;;7.50;99.90;;;;;;5112234;27;20416;-63
2021/03/21 10:22:44;;;;;;;46.10;6.68;;;7.30;99.90;;;;;;5111706;28;20358;-64
2021/03/21 10:25:16;;;;;;;35.20;6.15;;;7.30;99.90;;;;;;5111273;28;20028;-63
2021/03/21 10:27:50;;;;;;;45.55;7.55;;;7.20;99.90;;;;;;5111562;28;20026;-63
2021/03/21 10:35:54;;;;;;;37.20;7.05;;;7.40;99.90;;;;;;5112200;27;20420;-64
2021/03/21 10:38:45;;;;;;;30.23;6.00;;;7.40;99.90;;;;;;5094216;28;20114;-63
2021/03/21 10:41:31;;;;;;;40.05;6.85;;;7.50;99.90;;;;;;5110069;28;20112;-63
2021/03/21 10:43:59;;;;;;;35.35;6.63;;;7.50;99.90;;;;;;5110233;28;20423;-63
2021/03/21 10:46:44;;;;;;;41.40;7.38;;;7.60;99.90;;;;;;5111845;28;20085;-63
2021/03/21 10:49:10;;;;;;;43.58;6.85;;;7.60;99.90;;;;;;5110760;28;20035;-63
2021/03/21 10:52:18;;;;;;;38.75;7.20;;;7.60;99.90;;;;;;5111710;28;20032;-63
2021/03/21 10:54:44;;;;;;;40.17;6.75;;;7.70;99.90;;;;;;5109684;28;20020;-63
2021/03/21 10:57:34;;;;;;;33.83;5.97;;;7.60;99.90;;;;;;5111595;28;20035;-63
2021/03/21 11:00:12;;;;;;;32.28;6.10;;;7.60;99.90;;;;;;5110909;28;20021;-63
2021/03/21 11:02:43;;;;;;;32.75;6.93;;;7.70;99.90;;;;;;5111188;28;20016;-63
2021/03/21 11:05:34;;;;;;;32.05;5.72;;;7.70;99.90;;;;;;5110907;28;20055;-63
2021/03/21 11:08:02;;;;;;;35.50;6.57;;;7.70;99.90;;;;;;5110816;28;20030;-63
2021/03/21 11:10:32;;;;;;;37.58;6.25;;;7.80;99.90;;;;;;5111061;28;20030;-63
2021/03/21 11:12:58;;;;;;;42.20;7.10;;;7.90;99.90;;;;;;5111267;28;20065;-63
2021/03/21 11:15:38;;;;;;;33.15;6.95;;;8.00;99.90;;;;;;5111131;28;20032;-63
2021/03/21 11:18:13;;;;;;;35.10;6.72;;;8.20;99.90;;;;;;5109371;28;20078;-63
2021/03/21 11:20:38;;;;;;;36.50;7.13;;;8.40;99.90;;;;;;5111039;28;20476;-63
2021/03/21 11:23:09;;;;;;;38.47;7.22;;;8.50;99.90;;;;;;5111091;28;20020;-63
2021/03/21 11:25:39;;;;;;;38.85;6.10;;;8.60;99.90;;;;;;5111076;28;20035;-63
2021/03/21 11:28:06;;;;;;;41.38;6.88;;;8.60;99.90;;;;;;5110720;28;20020;-63
2021/03/21 11:30:51;;;;;;;42.33;7.20;;;8.60;99.90;;;;;;5109110;28;20020;-63
2021/03/21 11:33:31;;;;;;;29.38;6.18;;;8.30;99.90;;;;;;5110865;28;20023;-63
2021/03/21 11:36:32;;;;;;;49.53;6.70;;;8.60;99.90;;;;;;5110530;28;20377;-63
2021/03/21 11:39:20;;;;;;;30.88;6.40;;;8.40;99.90;;;;;;5110470;28;20023;-63
2021/03/21 11:41:46;;;;;;;41.85;7.20;;;8.30;99.90;;;;;;5110787;28;20020;-63
2021/03/21 11:44:20;;;;;;;44.88;7.07;;;8.40;99.90;;;;;;5110413;28;20035;-63
2021/03/21 11:46:48;;;;;;;33.10;6.25;;;8.40;99.90;;;;;;5099549;28;20024;-63
2021/03/21 11:49:15;;;;;;;37.17;7.45;;;8.50;99.90;;;;;;5097004;28;20024;-63
2021/03/21 11:51:42;;;;;;;33.90;5.63;;;8.40;99.90;;;;;;5095168;28;20028;-63
2021/03/21 11:54:17;;;;;;;43.13;7.45;;;8.50;99.90;;;;;;5096885;28;20020;-63
2021/03/21 11:57:00;;;;;;;33.70;6.55;;;8.40;99.90;;;;;;5096899;28;20111;-63
2021/03/21 11:59:30;;;;;;;;;;;8.50;99.90;;;;;;5097022;28;20070;-63
2021/03/21 12:01:57;;;;;;;34.90;6.50;;;8.70;99.90;;;;;;5096522;28;19908;-63
2021/03/21 12:04:38;;;;;;;35.63;6.60;;;8.70;99.90;;;;;;5096427;28;20020;-63
2021/03/21 12:07:05;;;;;;;37.35;6.68;;;8.90;99.90;;;;;;5096450;28;20028;-63
2021/03/21 12:09:36;;;;;;;39.13;7.13;;;8.90;99.90;;;;;;5096063;28;20024;-63
2021/03/21 12:12:05;;;;;;;38.45;6.78;;;8.80;99.90;;;;;;5096530;28;20457;-63
2021/03/21 12:14:45;;;;;;;35.60;6.63;;;9.00;99.90;;;;;;5094805;28;20024;-63
2021/03/21 12:20:30;;;;;;;40.80;7.35;;;8.90;99.90;;;;;;5091885;28;20348;-64
2021/03/21 12:22:57;;;;;;;35.38;6.57;;;9.20;99.90;;;;;;5091474;28;20029;-64
2021/03/21 12:25:29;;;;;;;34.08;6.97;;;9.20;99.90;;;;;;5090409;28;20052;-64
2021/03/21 12:28:20;;;;;;;37.90;6.82;;;9.20;99.90;;;;;;5091457;28;20020;-64
2021/03/21 12:30:56;;;;;;;37.00;7.63;;;9.20;99.90;;;;;;5091932;28;20351;-64
2021/03/21 12:33:32;;;;;;;39.60;7.38;;;9.30;99.90;;;;;;5091364;28;20111;-64
2021/03/21 12:36:19;;;;;;;34.95;6.45;;;9.40;99.90;;;;;;5091093;28;20046;-63
2021/03/21 12:38:54;;;;;;;37.20;6.53;;;9.50;99.90;;;;;;5091261;28;20021;-63
2021/03/21 12:41:33;;;;;;;32.47;5.55;;;9.50;99.90;;;;;;5090692;28;20095;-64
2021/03/21 12:44:17;;;;;;;34.80;7.03;;;9.50;99.90;;;;;;5090916;28;20362;-63
2021/03/21 12:46:48;;;;;;;31.33;6.10;;;9.70;99.90;;;;;;5091168;28;20461;-62
2021/03/21 12:49:50;;;;;;;29.48;5.82;;;9.70;99.90;;;;;;5091040;28;20043;-62
2021/03/21 12:52:23;;;;;;;34.58;6.03;;;9.80;99.90;;;;;;5091085;28;20028;-64
2021/03/21 12:54:49;;;;;;;;;;;10.20;99.90;;;;;;5091342;28;20032;-63
2021/03/21 12:57:15;;;;;;;40.60;6.18;;;10.40;99.90;;;;;;5090905;28;20042;-64
2021/03/21 12:59:44;;;;;;;35.30;6.88;;;10.10;99.90;;;;;;5089671;28;20052;-64
2021/03/21 13:02:17;;;;;;;29.85;6.00;;;10.10;99.90;;;;;;5090843;28;20070;-63
2021/03/21 13:04:43;;;;;;;33.78;6.32;;;9.80;99.90;;;;;;5090234;28;20025;-63
2021/03/21 13:07:09;;;;;;;53.42;8.38;;;9.90;99.90;;;;;;5090720;28;20017;-63
2021/03/21 13:09:34;;;;;;;37.33;6.25;;;9.80;99.90;;;;;;5090692;28;20039;-64
2021/03/21 13:12:00;;;;;;;32.17;6.75;;;10.20;99.90;;;;;;5090674;28;20028;-64
2021/03/21 13:14:25;;;;;;;42.58;7.40;;;10.20;99.90;;;;;;5090606;28;20025;-63
2021/03/21 13:16:51;;;;;;;39.38;7.80;;;10.20;99.90;;;;;;5090564;28;20032;-64
2021/03/21 13:19:16;;;;;;;39.15;7.22;;;10.10;99.90;;;;;;5089688;28;20044;-63
2021/03/21 13:21:42;;;;;;;34.80;6.50;;;9.80;99.90;;;;;;5088646;28;20024;-63
2021/03/21 13:24:07;;;;;;;32.67;6.50;;;9.60;99.90;;;;;;5090462;28;20104;-64
2021/03/21 13:26:33;;;;;;;34.13;6.18;;;9.70;99.90;;;;;;5088560;28;20025;-63
2021/03/21 13:28:58;;;;;;;39.65;6.75;;;9.60;99.90;;;;;;5090318;28;20028;-64
2021/03/21 13:31:24;;;;;;;42.13;7.72;;;9.50;99.90;;;;;;5076935;28;20051;-63
2021/03/21 13:33:49;;;;;;;40.20;6.93;;;9.40;99.90;;;;;;5076695;28;20029;-64
2021/03/21 13:36:15;;;;;;;41.42;7.45;;;9.50;99.90;;;;;;5076629;28;20079;-64
2021/03/21 13:38:41;;;;;;;27.55;5.68;;;9.60;99.90;;;;;;5076386;28;20035;-64
2021/03/21 13:41:06;;;;;;;45.03;7.10;;;9.80;99.90;;;;;;5076509;28;20062;-64
2021/03/21 13:43:32;;;;;;;43.55;8.25;;;9.90;99.90;;;;;;5076570;28;20021;-64
2021/03/21 13:46:00;;;;;;;28.67;6.25;;;10.00;99.90;;;;;;5076254;28;20012;-64
2021/03/21 13:48:26;;;;;;;29.85;6.18;;;10.00;99.90;;;;;;5074630;28;20110;-64
2021/03/21 13:50:53;;;;;;;28.25;5.15;;;9.70;99.90;;;;;;5075110;28;20036;-64
2021/03/21 13:53:25;;;;;;;34.60;5.75;;;9.50;99.90;;;;;;5074994;28;20020;-64
2021/03/21 13:55:50;;;;;;;32.00;7.28;;;9.40;99.90;;;;;;5076390;28;20457;-64
2021/03/21 13:58:16;;;;;;;33.63;6.63;;;9.60;99.90;;;;;;5076157;28;20147;-63
2021/03/21 14:00:41;;;;;;;31.50;6.03;;;9.80;99.90;;;;;;5076301;28;20030;-64
2021/03/21 14:03:08;;;;;;;35.83;6.43;;;9.80;99.90;;;;;;5076265;28;20059;-64
2021/03/21 14:05:34;;;;;;;40.95;6.90;;;9.70;99.90;;;;;;5076171;28;20123;-62
2021/03/21 14:08:00;;;;;;;28.30;5.82;;;9.70;99.90;;;;;;5076031;28;20021;-62
2021/03/21 14:10:28;;;;;;;36.95;5.82;;;9.70;99.90;;;;;;5074220;28;20078;-64
2021/03/21 14:12:55;;;;;;;29.73;6.20;;;9.70;99.90;;;;;;5075985;28;20516;-64